sensor_id;sensor_type;location;lat;lon;timestamp;pressure;altitude;pressure_sealevel;temperature;humidity
71903;BME280;59778;50.310;18.780;2023-05-25T00:12:10;99241.28;;;12.62;95.35
71903;BME280;59778;50.310;18.780;2023-05-25T00:27:31;99226.09;;;12.74;93.93
71903;BME280;59778;50.310;18.780;2023-05-25T00:42:52;99229.97;;;12.87;93.69
71903;BME280;59778;50.310;18.780;2023-05-25T00:58:16;99239.44;;;12.91;93.41
71903;BME280;59778;50.310;18.780;2023-05-25T01:13:41;99241.13;;;12.92;93.87
71903;BME280;59778;50.310;18.780;2023-05-25T01:29:03;99245.44;;;12.80;94.75
71903;BME280;59778;50.310;18.780;2023-05-25T01:44:25;99247.72;;;12.55;95.82
71903;BME280;59778;50.310;18.780;2023-05-25T01:59:48;99238.25;;;12.51;95.89
71903;BME280;59778;50.310;18.780;2023-05-25T02:15:12;99233.25;;;12.33;95.70
71903;BME280;59778;50.310;18.780;2023-05-25T02:30:33;99240.47;;;12.19;95.91
71903;BME280;59778;50.310;18.780;2023-05-25T02:45:54;99244.81;;;12.14;96.05
71903;BME280;59778;50.310;18.780;2023-05-25T03:01:15;99238.13;;;11.95;96.45
71903;BME280;59778;50.310;18.780;2023-05-25T03:16:38;99240.66;;;11.97;97.53
71903;BME280;59778;50.310;18.780;2023-05-25T03:31:59;99245.13;;;12.04;97.71
71903;BME280;59778;50.310;18.780;2023-05-25T03:47:21;99240.47;;;12.19;97.65
71903;BME280;59778;50.310;18.780;2023-05-25T04:02:42;99259.78;;;12.03;99.35
71903;BME280;59778;50.310;18.780;2023-05-25T04:18:05;99269.69;;;12.11;100.00
71903;BME280;59778;50.310;18.780;2023-05-25T04:33:26;99281.09;;;12.00;100.00
71903;BME280;59778;50.310;18.780;2023-05-25T04:48:49;99291.88;;;12.08;98.00
71903;BME280;59778;50.310;18.780;2023-05-25T05:04:10;99297.72;;;12.26;98.05
71903;BME280;59778;50.310;18.780;2023-05-25T05:19:32;99318.13;;;12.15;100.00
71903;BME280;59778;50.310;18.780;2023-05-25T05:34:53;99324.53;;;12.08;100.00
71903;BME280;59778;50.310;18.780;2023-05-25T05:50:15;99325.28;;;12.02;100.00
71903;BME280;59778;50.310;18.780;2023-05-25T06:05:36;99341.56;;;11.95;100.00
71903;BME280;59778;50.310;18.780;2023-05-25T06:20:59;99358.63;;;11.89;100.00
71903;BME280;59778;50.310;18.780;2023-05-25T06:36:21;99367.38;;;11.85;100.00
71903;BME280;59778;50.310;18.780;2023-05-25T06:51:42;99379.28;;;11.69;100.00
71903;BME280;59778;50.310;18.780;2023-05-25T07:07:03;99386.06;;;11.73;100.00
71903;BME280;59778;50.310;18.780;2023-05-25T07:22:25;99393.16;;;11.74;100.00
71903;BME280;59778;50.310;18.780;2023-05-25T07:37:55;99396.72;;;11.89;100.00
71903;BME280;59778;50.310;18.780;2023-05-25T07:53:16;99412.88;;;11.91;100.00
71903;BME280;59778;50.310;18.780;2023-05-25T08:08:38;99407.91;;;11.79;100.00
71903;BME280;59778;50.310;18.780;2023-05-25T08:23:59;99410.47;;;11.96;100.00
71903;BME280;59778;50.310;18.780;2023-05-25T08:39:24;99401.72;;;12.15;98.78
71903;BME280;59778;50.310;18.780;2023-05-25T08:54:46;99406.72;;;12.33;98.95
71903;BME280;59778;50.310;18.780;2023-05-25T09:10:11;99420.38;;;12.68;96.76
71903;BME280;59778;50.310;18.780;2023-05-25T09:25:32;99423.25;;;13.03;95.89
71903;BME280;59778;50.310;18.780;2023-05-25T09:40:55;99418.59;;;13.18;94.00
71903;BME280;59778;50.310;18.780;2023-05-25T09:56:16;99427.00;;;13.44;92.74
71903;BME280;59778;50.310;18.780;2023-05-25T10:11:38;99412.75;;;13.42;92.26
71903;BME280;59778;50.310;18.780;2023-05-25T10:27:05;99416.81;;;13.87;90.99
71903;BME280;59778;50.310;18.780;2023-05-25T10:42:29;99425.63;;;14.17;91.12
71903;BME280;59778;50.310;18.780;2023-05-25T10:58:09;99413.69;;;14.25;91.27
71903;BME280;59778;50.310;18.780;2023-05-25T11:13:42;99403.91;;;14.43;90.09
71903;BME280;59778;50.310;18.780;2023-05-25T11:29:14;99417.44;;;14.24;91.05
71903;BME280;59778;50.310;18.780;2023-05-25T11:44:36;99400.56;;;14.48;91.79
71903;BME280;59778;50.310;18.780;2023-05-25T11:59:59;99393.25;;;14.14;93.83
71903;BME280;59778;50.310;18.780;2023-05-25T12:15:23;99383.06;;;14.36;91.33
71903;BME280;59778;50.310;18.780;2023-05-25T12:30:44;99378.16;;;14.79;90.86
71903;BME280;59778;50.310;18.780;2023-05-25T12:46:07;99377.91;;;14.67;90.94
71903;BME280;59778;50.310;18.780;2023-05-25T13:01:28;99362.63;;;14.92;89.79
71903;BME280;59778;50.310;18.780;2023-05-25T13:16:51;99361.53;;;14.80;90.62
71903;BME280;59778;50.310;18.780;2023-05-25T13:32:12;99353.78;;;14.97;90.47
71903;BME280;59778;50.310;18.780;2023-05-25T13:47:33;99349.13;;;14.97;89.92
71903;BME280;59778;50.310;18.780;2023-05-25T14:02:54;99349.34;;;14.83;91.07
71903;BME280;59778;50.310;18.780;2023-05-25T14:18:16;99345.09;;;14.67;92.29
71903;BME280;59778;50.310;18.780;2023-05-25T14:33:37;99328.97;;;15.05;90.58
71903;BME280;59778;50.310;18.780;2023-05-25T14:48:58;99339.06;;;15.24;90.27
71903;BME280;59778;50.310;18.780;2023-05-25T15:04:20;99322.41;;;15.39;88.75
71903;BME280;59778;50.310;18.780;2023-05-25T15:19:41;99321.78;;;15.17;89.14
71903;BME280;59778;50.310;18.780;2023-05-25T15:35:03;99310.63;;;15.51;88.25
71903;BME280;59778;50.310;18.780;2023-05-25T15:50:25;99309.75;;;15.38;90.18
71903;BME280;59778;50.310;18.780;2023-05-25T16:05:46;99302.81;;;15.55;90.27
71903;BME280;59778;50.310;18.780;2023-05-25T16:21:07;99301.72;;;15.69;90.23
71903;BME280;59778;50.310;18.780;2023-05-25T16:36:29;99296.88;;;15.65;90.07
71903;BME280;59778;50.310;18.780;2023-05-25T16:51:50;99292.69;;;15.62;90.84
71903;BME280;59778;50.310;18.780;2023-05-25T17:07:12;99283.25;;;15.51;92.68
71903;BME280;59778;50.310;18.780;2023-05-25T17:22:33;99297.75;;;15.45;93.05
71903;BME280;59778;50.310;18.780;2023-05-25T17:37:55;99293.13;;;15.46;92.87
71903;BME280;59778;50.310;18.780;2023-05-25T17:53:35;99299.03;;;15.30;94.04
71903;BME280;59778;50.310;18.780;2023-05-25T18:09:13;99292.75;;;15.23;94.39
71903;BME280;59778;50.310;18.780;2023-05-25T18:24:35;99301.81;;;15.17;95.93
71903;BME280;59778;50.310;18.780;2023-05-25T18:39:56;99306.00;;;14.99;96.09
71903;BME280;59778;50.310;18.780;2023-05-25T18:55:18;99327.47;;;14.83;98.44
71903;BME280;59778;50.310;18.780;2023-05-25T19:10:39;99338.38;;;14.70;98.77
71903;BME280;59778;50.310;18.780;2023-05-25T19:26:02;99336.94;;;14.80;97.65
71903;BME280;59778;50.310;18.780;2023-05-25T19:41:23;99341.09;;;14.63;98.49
71903;BME280;59778;50.310;18.780;2023-05-25T19:56:45;99338.75;;;14.47;100.00
71903;BME280;59778;50.310;18.780;2023-05-25T20:12:08;99328.22;;;14.37;100.00
71903;BME280;59778;50.310;18.780;2023-05-25T20:27:29;99328.13;;;14.24;100.00
71903;BME280;59778;50.310;18.780;2023-05-25T20:42:51;99332.09;;;14.15;100.00
71903;BME280;59778;50.310;18.780;2023-05-25T20:58:13;99335.25;;;14.18;100.00
71903;BME280;59778;50.310;18.780;2023-05-25T21:13:34;99334.56;;;14.03;100.00
71903;BME280;59778;50.310;18.780;2023-05-25T21:28:56;99343.84;;;14.09;100.00
71903;BME280;59778;50.310;18.780;2023-05-25T21:44:17;99341.53;;;14.06;100.00
71903;BME280;59778;50.310;18.780;2023-05-25T21:59:38;99336.28;;;14.11;100.00
71903;BME280;59778;50.310;18.780;2023-05-25T22:15:00;99339.16;;;13.96;100.00
71903;BME280;59778;50.310;18.780;2023-05-25T22:30:21;99343.47;;;13.78;100.00
71903;BME280;59778;50.310;18.780;2023-05-25T22:45:42;99340.06;;;14.10;100.00
71903;BME280;59778;50.310;18.780;2023-05-25T23:01:04;99343.00;;;14.08;100.00
71903;BME280;59778;50.310;18.780;2023-05-25T23:16:25;99341.88;;;13.96;100.00
71903;BME280;59778;50.310;18.780;2023-05-25T23:31:48;99332.91;;;14.09;100.00
71903;BME280;59778;50.310;18.780;2023-05-25T23:47:10;99327.81;;;13.93;100.00
